Palo Alto Of Santa Clara County, CA

3:28 AM PDT on August 30, 2014 (GMT -0700)
Moffett Federal Air Field | Change Station
CLOSE
Current Station
Airport
Location: Moffett NAS,
Elevation: 39 ft
Nearby Weather Stations

Elev 39 ft 37.41 °N, 122.05 °W | Updated 32 minutes ago

Clear
Clear
65 °F
Feels Like 65 °F
N
4
Wind Variable Wind from WSW

Today
High -- | Low -- °F
--% Chance of Precip.
Yesterday
High -- | Low -- °F
Precip. -- in
6:37 AM 7:40 PM
Waxing Crescent, 21% visible
Pressure 29.91 in
Visibility 10.0 miles
Clouds Clear
Dew Point 59 °F
Humidity 81%
Rainfall 0.00 in
Snow Depth Not available.
UV 0 out of 12
Pollen 7.40 out of 12
Ozone Good
PM2.5 Good
Flu Activity Not available.
METAR KNUQ 300956Z AUTO 24003KT 10SM CLR 18/15 A2990 RMK AO2 SLP129 T01830150 TSNO

More Conditions Fewer Conditions

Pressure 29.91 in
Visibility 10.0 miles
Clouds Clear
Dew Point 59 °F
Humidity 81%
Rainfall 0.00 in
Snow Depth Not available.
UV 0 out of 12
Pollen 7.40 out of 12
Ozone Good
PM2.5 Good
Flu Activity Not available.
METAR KNUQ 300956Z AUTO 24003KT 10SM CLR 18/15 A2990 RMK AO2 SLP129 T01830150 TSNO

More Conditions Fewer Conditions

10-Day Weather Forecast

Almanac

Astronomy

Aug. 30, 2014 Rise Set
Actual Time 6:37 AM PDT 7:40 PM PDT
Civil Twilight 6:10 AM PDT 8:06 PM PDT
Nautical Twilight 5:38 AM PDT 8:38 PM PDT
Astronomical Twilight 5:05 AM PDT 9:11 PM PDT
Moon 11:23 AM PDT 10:24 PM PDT
Length of Visible Light 13h 56m
Length of Day
13h 02m
Tomorrow will be 2m 18s shorter.
Waxing Crescent, 21% of the Moon is Illuminated
Today
Waxing Crescent
Sep 2
First Quarter
Sep 8
Full
Sep 15
Last Quarter
Sep 24
New

Today's Extremes

State Highs State Lows

Community

WunderPhotos

Upload Photos

1,748,482 photos uploaded!

Nearby

Air Quality

  Air Quality AQ Index Pollutant
Yesterday Good
PM2.5
Yesterday Good
OZONE
Current Good
PM2.5
Current Good
OZONE
Saturday Good
PM2.5
Sunday Good
OZONE
Monday Good
OZONE
Tuesday Good
PM2.5
Wednesday Good
OZONE

Snow Depth

Station Depth Elevation
Blue Lakes 0 in 8000 ft
Forestdale Creek 0 in 8029 ft
Echo Peak 1 in 7800 ft
Leavitt Lake 0 in 9400 ft
Fallen Leaf 0 in 6300 ft

Earthquake Activity

City Distance Mag. Time & Date
Ridgemark, California 69 miles 3.4 4:32 PM PDT
2014-08-29
The Geysers, California 101 miles 2.7 2:53 PM PDT
2014-08-29
Ridgemark, California 69 miles 3.0 2:44 PM PDT
2014-08-29
Minimum magnitude displayed is 2.5.

Coastal Water Temperatures

Place Temperature
No Stations Reporting

Nearby Weather Stations